Aurora, Canada
Current Conditions -  °F | °C
As of 4:00 PM on Monday 24 Nov 2014 (Local Time) from CYKZ Reporting Station
Overcast Overcast  
Wind Chill: 59°   Ceiling: 2800
Heat Index: 59°   Visibility: 15mi
Dew Point: 48°   Wind: 22mph
Humidity: 67%   Direction: 220°SW
Pressure: 29.22"   Gusts: 31mph
Location:  44°N, 79.47°W
Report Text: CYKZ 242100Z 22019G27KT 15SM OVC028 15/09 A2922 RMK SC8 SLP896
Loading
Personal Weather Stations






























Interactive Weather Map New forecast layout! Learn more

10-Day Weather Forecast

Advertisements
Track Severe Weather on mobile